createdAt,value
2022-09-30T00:00:03.279Z,6.43
2022-09-30T00:01:03.619Z,6.41
2022-09-30T00:02:03.400Z,6.41
2022-09-30T00:03:03.311Z,6.40
2022-09-30T00:04:03.280Z,6.38
2022-09-30T00:05:03.256Z,6.35
2022-09-30T00:06:07.841Z,6.35
2022-09-30T00:07:03.210Z,6.33
2022-09-30T00:08:03.208Z,6.35
2022-09-30T00:09:03.270Z,6.33
2022-09-30T00:10:03.133Z,6.35
2022-09-30T00:11:03.133Z,6.36
2022-09-30T00:12:03.118Z,6.33
2022-09-30T00:13:03.120Z,6.36
2022-09-30T00:14:03.127Z,6.35
2022-09-30T00:15:03.085Z,6.35
2022-09-30T00:16:03.105Z,6.33
2022-09-30T00:17:03.107Z,6.35
2022-09-30T00:18:03.092Z,6.32
2022-09-30T00:19:03.043Z,6.35
2022-09-30T00:25:13.881Z,6.26
2022-09-30T00:26:14.105Z,6.21
2022-09-30T00:27:34.079Z,6.18
2022-09-30T00:28:13.143Z,6.14
2022-09-30T00:29:39.473Z,6.14
2022-09-30T00:30:13.023Z,6.14
2022-09-30T00:31:13.066Z,6.13
2022-09-30T00:32:13.023Z,6.18
2022-09-30T00:33:34.014Z,6.16
2022-09-30T00:43:53.712Z,6.22
2022-09-30T00:44:49.296Z,6.18
2022-09-30T00:45:49.303Z,6.21
2022-09-30T00:46:49.325Z,6.19
2022-09-30T01:08:21.734Z,6.09
2022-09-30T01:08:47.552Z,6.07
2022-09-30T01:22:10.957Z,5.89
2022-09-30T01:23:18.555Z,5.91
2022-09-30T01:23:57.570Z,5.95
2022-09-30T01:24:57.639Z,5.96
2022-09-30T01:25:57.539Z,5.96
2022-09-30T01:26:57.531Z,5.93
2022-09-30T01:27:57.552Z,5.95
2022-09-30T01:28:57.490Z,5.89
2022-09-30T01:29:57.483Z,5.83
2022-09-30T01:30:57.553Z,5.83
2022-09-30T01:31:57.444Z,5.81
2022-09-30T01:32:57.434Z,5.77
2022-09-30T01:33:57.480Z,5.77
2022-09-30T01:34:57.429Z,5.75
2022-09-30T01:35:57.413Z,5.74
2022-09-30T01:36:57.404Z,5.75
2022-09-30T01:37:57.359Z,5.74
2022-09-30T01:38:57.386Z,5.74
2022-09-30T01:39:57.388Z,5.73
2022-09-30T01:40:57.330Z,5.71
2022-09-30T01:41:57.321Z,5.67
2022-09-30T01:42:57.305Z,5.66
2022-09-30T01:43:57.302Z,5.66
2022-09-30T01:44:57.306Z,5.67
2022-09-30T01:45:57.259Z,5.67
2022-09-30T01:46:57.306Z,5.67
2022-09-30T01:47:57.297Z,5.67
2022-09-30T01:48:57.234Z,5.64
2022-09-30T01:49:57.202Z,5.64
2022-09-30T01:50:57.253Z,5.66
2022-09-30T01:51:57.233Z,5.64
2022-09-30T01:52:57.162Z,5.64
2022-09-30T01:53:57.189Z,5.63
2022-09-30T01:54:57.166Z,5.63
2022-09-30T01:55:57.129Z,5.63
2022-09-30T01:56:57.103Z,5.63
2022-09-30T01:57:57.250Z,5.66
2022-09-30T01:58:57.105Z,5.60
2022-09-30T01:59:57.106Z,5.57
2022-09-30T02:00:57.176Z,5.59
2022-09-30T02:01:57.095Z,5.57
2022-09-30T02:02:57.031Z,5.63
2022-09-30T02:03:57.040Z,5.63
2022-09-30T02:04:57.004Z,5.59
2022-09-30T02:05:57.039Z,5.57
2022-09-30T02:06:56.977Z,5.57
2022-09-30T02:07:57.019Z,5.55
2022-09-30T02:08:56.979Z,5.56
2022-09-30T02:09:56.971Z,5.53
2022-09-30T02:10:56.983Z,5.52
2022-09-30T02:11:56.887Z,5.52
2022-09-30T02:12:56.894Z,5.50
2022-09-30T02:13:56.893Z,5.55
2022-09-30T02:14:56.870Z,5.53
2022-09-30T02:15:56.878Z,5.55
2022-09-30T02:16:56.831Z,5.52
2022-09-30T02:17:56.905Z,5.53
2022-09-30T02:18:56.832Z,5.53
2022-09-30T02:19:56.821Z,5.52
2022-09-30T02:20:56.800Z,5.55
2022-09-30T02:21:56.796Z,5.60
2022-09-30T02:22:56.756Z,5.60
2022-09-30T02:23:56.757Z,5.60
2022-09-30T02:24:56.753Z,5.57
2022-09-30T02:25:56.706Z,5.55
2022-09-30T02:26:56.724Z,5.57
2022-09-30T03:08:20.044Z,5.23
2022-09-30T03:09:19.433Z,5.19
2022-09-30T03:10:19.342Z,5.19
2022-09-30T03:11:19.309Z,5.16
2022-09-30T03:12:19.341Z,5.16
2022-09-30T03:13:19.310Z,5.14
2022-09-30T03:14:19.276Z,5.14
2022-09-30T03:15:19.273Z,5.14
2022-09-30T03:16:19.327Z,5.14
2022-09-30T03:17:19.252Z,5.17
2022-09-30T03:18:19.219Z,5.17
2022-09-30T03:19:19.273Z,5.16
2022-09-30T03:20:19.209Z,5.14
2022-09-30T03:21:19.183Z,5.12
2022-09-30T03:22:19.222Z,5.13
2022-09-30T03:23:19.163Z,5.17
2022-09-30T03:24:19.171Z,5.17
2022-09-30T03:25:19.140Z,5.17
2022-09-30T03:26:19.109Z,5.17
2022-09-30T03:27:19.097Z,5.19
2022-09-30T03:28:19.091Z,5.14
2022-09-30T03:29:19.057Z,5.17
2022-09-30T03:30:23.495Z,5.16
2022-09-30T03:31:19.114Z,5.16
2022-09-30T03:32:19.033Z,5.10
2022-09-30T03:33:19.030Z,5.05
2022-09-30T03:34:19.029Z,5.07
2022-09-30T03:35:19.057Z,5.07
2022-09-30T03:36:18.983Z,5.05
2022-09-30T03:37:19.001Z,5.12
2022-09-30T03:38:18.990Z,5.09
2022-09-30T03:39:18.987Z,5.10
2022-09-30T03:40:18.949Z,5.10
2022-09-30T03:41:18.914Z,5.10
2022-09-30T03:42:22.765Z,5.07
2022-09-30T03:43:18.880Z,5.04
2022-09-30T03:44:18.915Z,5.04
2022-09-30T03:45:18.902Z,5.02
2022-09-30T03:46:18.941Z,4.99
2022-09-30T03:47:18.843Z,5.01
2022-09-30T03:48:18.848Z,5.01
2022-09-30T03:49:18.849Z,4.98
2022-09-30T03:50:18.795Z,4.98
2022-09-30T03:51:18.798Z,5.01
2022-09-30T03:52:18.780Z,5.01
2022-09-30T03:53:18.789Z,4.99
2022-09-30T03:54:18.746Z,4.99
2022-09-30T03:55:18.724Z,4.99
2022-09-30T03:56:18.735Z,4.99
2022-09-30T03:57:20.944Z,4.96
2022-09-30T03:58:18.731Z,4.99
2022-09-30T03:59:39.683Z,5.01
2022-09-30T04:00:18.662Z,4.99
2022-09-30T04:01:20.828Z,4.99
2022-09-30T04:02:18.728Z,4.95
2022-09-30T04:03:18.873Z,4.94
2022-09-30T04:04:18.625Z,4.91
2022-09-30T04:05:18.606Z,4.91
2022-09-30T04:06:18.609Z,4.84
2022-09-30T04:07:18.570Z,4.84
2022-09-30T04:08:18.582Z,4.88
2022-09-30T04:09:18.610Z,4.92
2022-09-30T04:10:18.525Z,4.92
2022-09-30T04:11:18.564Z,4.91
2022-09-30T04:12:18.503Z,4.91
2022-09-30T04:13:18.753Z,4.94
2022-09-30T04:17:33.714Z,4.91
2022-09-30T04:18:31.570Z,4.89
2022-09-30T04:19:28.463Z,4.88
2022-09-30T04:20:27.461Z,4.86
2022-09-30T04:21:28.474Z,4.88
2022-09-30T04:22:28.517Z,4.84
2022-09-30T04:23:50.466Z,4.88
2022-09-30T04:24:28.402Z,4.89
2022-09-30T04:25:28.463Z,4.88
2022-09-30T04:26:28.373Z,4.86
2022-09-30T04:34:36.481Z,4.75
2022-09-30T04:35:37.407Z,4.72
2022-09-30T04:36:38.147Z,4.70
2022-09-30T04:37:37.392Z,4.69
2022-09-30T04:38:37.391Z,4.70
2022-09-30T04:39:37.354Z,4.67
2022-09-30T04:40:37.410Z,4.67
2022-09-30T04:41:37.320Z,4.67
2022-09-30T04:42:37.325Z,4.69
2022-09-30T04:43:37.307Z,4.69
2022-09-30T04:44:37.296Z,4.67
2022-09-30T04:45:37.330Z,4.69
2022-09-30T04:46:37.286Z,4.67
2022-09-30T04:47:37.315Z,4.67
2022-09-30T04:48:37.332Z,4.65
2022-09-30T04:49:37.242Z,4.65
2022-09-30T04:50:37.245Z,4.65
2022-09-30T04:51:37.252Z,4.65
2022-09-30T04:52:37.270Z,4.67
2022-09-30T04:53:37.188Z,4.69
2022-09-30T04:54:37.239Z,4.67
2022-09-30T04:55:38.215Z,4.67
2022-09-30T04:56:37.176Z,4.65
2022-09-30T04:57:37.119Z,4.67
2022-09-30T04:58:37.308Z,4.64
2022-09-30T04:59:37.167Z,4.67
2022-09-30T05:00:37.211Z,4.65
2022-09-30T05:01:37.110Z,4.65
2022-09-30T05:02:58.071Z,4.65
2022-09-30T05:03:37.055Z,4.62
2022-09-30T05:04:39.141Z,4.59
2022-09-30T05:05:37.037Z,4.58
2022-09-30T05:06:37.086Z,4.59
2022-09-30T05:07:36.997Z,4.58
2022-09-30T05:08:38.844Z,4.55
2022-09-30T05:09:40.065Z,4.54
2022-09-30T05:10:37.652Z,4.58
2022-09-30T05:11:36.960Z,4.55
2022-09-30T05:12:36.941Z,4.55
2022-09-30T05:13:36.962Z,4.55
2022-09-30T05:14:36.906Z,4.55
2022-09-30T05:15:36.863Z,4.55
2022-09-30T05:16:44.667Z,4.54
2022-09-30T05:17:36.848Z,4.57
2022-09-30T05:18:57.822Z,4.52
2022-09-30T05:19:36.820Z,4.50
2022-09-30T05:20:36.891Z,4.47
2022-09-30T05:21:37.690Z,4.47
2022-09-30T05:22:36.840Z,4.50
2022-09-30T05:23:57.755Z,4.52
2022-09-30T05:24:36.750Z,4.47
2022-09-30T05:25:36.784Z,4.50
2022-09-30T05:26:36.748Z,4.47
2022-09-30T05:27:36.709Z,4.50
2022-09-30T05:28:36.697Z,4.50
2022-09-30T05:29:36.817Z,4.47
2022-09-30T05:30:36.675Z,4.50
2022-09-30T05:31:36.704Z,4.50
2022-09-30T05:32:36.636Z,4.50
2022-09-30T05:33:36.652Z,4.51
2022-09-30T05:34:36.653Z,4.51
2022-09-30T05:35:36.588Z,4.50
2022-09-30T05:36:38.208Z,4.52
2022-09-30T05:37:36.592Z,4.50
2022-09-30T05:38:36.593Z,4.47
2022-09-30T05:39:36.567Z,4.47
2022-09-30T05:40:37.163Z,4.51
2022-09-30T05:41:36.553Z,4.47
2022-09-30T05:42:36.497Z,4.47
2022-09-30T05:43:36.521Z,4.51
2022-09-30T05:44:36.474Z,4.50
2022-09-30T05:45:36.546Z,4.52
2022-09-30T05:46:36.554Z,4.57
2022-09-30T05:47:36.452Z,4.62
2022-09-30T05:48:36.434Z,4.65
2022-09-30T05:49:36.460Z,4.65
2022-09-30T05:50:36.413Z,4.72
2022-09-30T05:51:36.723Z,4.72
2022-09-30T05:52:36.398Z,4.73
2022-09-30T05:53:37.084Z,4.75
2022-09-30T05:54:36.445Z,4.76
2022-09-30T05:55:39.228Z,4.77
2022-09-30T05:56:36.368Z,4.77
2022-09-30T05:57:36.330Z,4.79
2022-09-30T05:58:36.311Z,4.77
2022-09-30T05:59:36.423Z,4.80
2022-09-30T06:00:36.249Z,4.77
2022-09-30T06:01:36.309Z,4.79
2022-09-30T06:02:36.410Z,4.79
2022-09-30T06:03:36.266Z,4.84
2022-09-30T06:04:36.188Z,4.84
2022-09-30T06:05:36.247Z,4.84
2022-09-30T06:06:37.154Z,4.83
2022-09-30T06:07:36.169Z,4.91
2022-09-30T06:08:36.141Z,4.95
2022-09-30T06:09:36.177Z,4.95
2022-09-30T06:10:36.219Z,5.01
2022-09-30T06:11:36.103Z,5.02
2022-09-30T06:12:36.127Z,5.02
2022-09-30T06:13:36.102Z,5.01
2022-09-30T06:14:36.058Z,5.04
2022-09-30T06:15:36.042Z,5.01
2022-09-30T06:16:36.139Z,5.04
2022-09-30T06:17:36.072Z,5.02
2022-09-30T06:18:36.069Z,5.04
2022-09-30T06:19:36.035Z,5.02
2022-09-30T06:20:35.997Z,5.05
2022-09-30T06:21:36.015Z,5.04
2022-09-30T06:22:36.021Z,5.04
2022-09-30T06:23:35.946Z,5.25
2022-09-30T06:24:35.991Z,5.34
2022-09-30T06:25:36.025Z,5.35
2022-09-30T06:26:35.902Z,5.38
2022-09-30T06:27:35.935Z,5.38
2022-09-30T06:28:35.903Z,5.41
2022-09-30T06:29:36.576Z,5.41
2022-09-30T06:30:35.917Z,5.40
2022-09-30T06:31:35.913Z,5.41
2022-09-30T06:32:35.875Z,5.43
2022-09-30T06:33:35.876Z,5.45
2022-09-30T06:34:35.790Z,5.46
2022-09-30T06:35:35.772Z,5.48
2022-09-30T06:36:35.750Z,5.52
2022-09-30T06:37:57.786Z,5.52
2022-09-30T06:38:35.743Z,5.55
2022-09-30T06:39:35.712Z,5.56
2022-09-30T06:40:35.705Z,5.63
2022-09-30T06:45:48.935Z,5.73
2022-09-30T06:46:53.885Z,5.75
2022-09-30T06:47:58.470Z,5.82
2022-09-30T06:48:49.890Z,5.82
2022-09-30T06:49:51.114Z,5.86
2022-09-30T06:51:00.922Z,5.91
2022-09-30T06:51:49.787Z,5.91
2022-09-30T06:53:10.848Z,5.92
2022-09-30T06:53:53.213Z,5.95
2022-09-30T06:54:49.746Z,6.00
2022-09-30T06:55:49.747Z,6.03
2022-09-30T06:57:05.951Z,6.07
2022-09-30T06:57:49.710Z,6.11
2022-09-30T06:58:50.872Z,6.14
2022-09-30T07:00:10.869Z,6.14
2022-09-30T07:00:49.802Z,6.21
2022-09-30T07:01:49.688Z,6.22
2022-09-30T07:03:10.651Z,6.26
2022-09-30T07:03:54.522Z,6.29
2022-09-30T07:05:10.608Z,6.32
2022-09-30T07:05:49.609Z,6.36
2022-09-30T07:06:58.414Z,6.40
2022-09-30T07:08:12.772Z,6.44
2022-09-30T07:08:51.753Z,6.46
2022-09-30T07:09:56.347Z,6.48
2022-09-30T07:10:49.557Z,6.54
2022-09-30T07:11:49.599Z,6.59
2022-09-30T07:13:10.581Z,6.62
2022-09-30T07:13:52.540Z,6.63
2022-09-30T07:14:49.495Z,6.69
2022-09-30T07:16:10.629Z,6.76
2022-09-30T07:17:10.470Z,6.77
2022-09-30T07:17:49.428Z,6.79
2022-09-30T07:18:49.463Z,6.84
2022-09-30T07:19:49.404Z,6.87
2022-09-30T07:21:25.025Z,6.90
2022-09-30T07:23:33.741Z,7.01
2022-09-30T07:24:36.938Z,7.07
2022-09-30T07:25:57.830Z,7.08
2022-09-30T07:26:34.848Z,7.12
2022-09-30T07:27:34.699Z,7.15
2022-09-30T07:28:34.703Z,7.22
2022-09-30T07:29:56.587Z,7.23
2022-09-30T07:30:34.660Z,7.29
2022-09-30T07:31:35.807Z,7.32
2022-09-30T07:32:34.689Z,7.37
2022-09-30T07:33:34.594Z,7.40
2022-09-30T07:34:34.625Z,7.41
2022-09-30T07:35:34.583Z,7.47
2022-09-30T07:36:34.656Z,7.50
2022-09-30T07:37:34.570Z,7.53
2022-09-30T07:38:34.536Z,7.59
2022-09-30T07:39:34.532Z,7.60
2022-09-30T07:44:32.807Z,7.87
2022-09-30T07:45:30.511Z,7.92
2022-09-30T07:46:30.489Z,7.94
2022-09-30T07:47:33.539Z,8.00
2022-09-30T07:48:30.438Z,8.03
2022-09-30T07:49:30.404Z,8.08
2022-09-30T07:50:30.416Z,8.12
2022-09-30T07:51:30.399Z,8.17
2022-09-30T07:52:30.364Z,8.22
2022-09-30T07:53:30.372Z,8.26
2022-09-30T07:54:30.356Z,8.32
2022-09-30T07:55:30.330Z,8.33
2022-09-30T07:56:45.570Z,8.40
2022-09-30T07:57:30.318Z,8.39
2022-09-30T07:58:30.324Z,8.45
2022-09-30T07:59:30.289Z,8.51
2022-09-30T08:00:42.097Z,8.53
2022-09-30T08:01:30.388Z,8.55
2022-09-30T08:02:30.276Z,8.62
2022-09-30T08:03:30.243Z,8.68
2022-09-30T08:04:30.223Z,8.71
2022-09-30T08:05:30.229Z,8.73
2022-09-30T08:06:30.209Z,8.78
2022-09-30T08:07:30.202Z,8.84
2022-09-30T08:08:30.169Z,8.86
2022-09-30T08:09:30.538Z,8.88
2022-09-30T08:10:30.151Z,8.91
2022-09-30T08:11:30.171Z,8.94
2022-09-30T08:12:30.138Z,8.99
2022-09-30T08:13:30.083Z,9.04
2022-09-30T08:14:30.087Z,9.06
2022-09-30T08:15:30.059Z,9.12
2022-09-30T08:16:30.154Z,9.20
2022-09-30T08:17:30.030Z,9.21
2022-09-30T08:18:30.031Z,9.25
2022-09-30T08:19:30.023Z,9.28
2022-09-30T08:20:29.996Z,9.30
2022-09-30T08:21:30.241Z,9.38
2022-09-30T08:22:30.037Z,9.40
2022-09-30T08:23:29.957Z,9.50
2022-09-30T08:24:29.944Z,9.52
2022-09-30T08:25:29.912Z,9.57
2022-09-30T08:26:29.938Z,9.61
2022-09-30T08:27:30.022Z,9.68
2022-09-30T08:28:29.883Z,9.76
2022-09-30T08:30:31.124Z,9.83
2022-09-30T08:31:29.929Z,9.89
2022-09-30T08:32:29.883Z,9.93
2022-09-30T08:33:29.798Z,10.00
2022-09-30T08:34:29.835Z,10.04
2022-09-30T08:35:29.815Z,10.10
2022-09-30T08:36:29.781Z,10.12
2022-09-30T08:37:29.768Z,10.19
2022-09-30T08:38:29.741Z,10.26
2022-09-30T08:39:29.736Z,10.26
2022-09-30T08:40:29.750Z,10.30
2022-09-30T08:41:29.736Z,10.36
2022-09-30T08:42:37.271Z,10.42
2022-09-30T08:43:29.708Z,10.47
2022-09-30T08:44:29.696Z,10.52
2022-09-30T08:45:29.680Z,10.56
2022-09-30T08:46:29.673Z,10.65
2022-09-30T08:47:29.646Z,10.66
2022-09-30T08:48:29.629Z,10.73
2022-09-30T08:49:29.614Z,10.81
2022-09-30T08:50:29.578Z,10.83
2022-09-30T08:51:29.595Z,10.88
2022-09-30T08:52:44.669Z,10.96
2022-09-30T08:53:29.550Z,10.98
2022-09-30T08:54:29.560Z,11.06
2022-09-30T08:55:29.510Z,11.13
2022-09-30T08:56:29.494Z,11.13
2022-09-30T08:57:29.497Z,11.16
2022-09-30T08:58:29.477Z,11.19
2022-09-30T08:59:29.462Z,11.28
2022-09-30T09:00:29.458Z,11.31
2022-09-30T09:01:29.483Z,11.38
2022-09-30T09:02:29.576Z,11.49
2022-09-30T09:03:29.445Z,11.50
2022-09-30T09:04:29.536Z,11.56
2022-09-30T09:05:29.426Z,11.64
2022-09-30T09:06:29.398Z,11.64
2022-09-30T09:07:29.388Z,11.68
2022-09-30T09:08:29.345Z,11.71
2022-09-30T09:09:29.314Z,11.77
2022-09-30T09:10:29.308Z,11.85
2022-09-30T09:11:29.300Z,11.93
2022-09-30T09:12:29.336Z,11.99
2022-09-30T09:13:29.258Z,12.02
2022-09-30T09:14:29.246Z,12.09
2022-09-30T09:15:29.496Z,12.15
2022-09-30T09:16:31.273Z,12.16
2022-09-30T09:17:29.224Z,12.21
2022-09-30T09:18:29.200Z,12.26
2022-09-30T09:19:29.212Z,12.26
2022-09-30T09:20:29.176Z,12.31
2022-09-30T09:21:29.193Z,12.37
2022-09-30T09:22:29.158Z,12.41
2022-09-30T09:23:29.157Z,12.46
2022-09-30T09:24:29.126Z,12.54
2022-09-30T09:25:29.237Z,12.60
2022-09-30T09:26:29.088Z,12.74
2022-09-30T09:28:29.186Z,12.87
2022-09-30T09:29:29.049Z,12.88
2022-09-30T09:30:29.027Z,12.97
2022-09-30T09:31:29.156Z,12.99
2022-09-30T09:32:29.077Z,13.00
2022-09-30T09:33:29.057Z,13.04
2022-09-30T09:34:28.989Z,13.07
2022-09-30T09:35:28.964Z,13.11
2022-09-30T09:36:28.997Z,13.17
2022-09-30T09:37:29.041Z,13.24
2022-09-30T09:38:28.912Z,13.32
2022-09-30T09:39:28.934Z,13.33
2022-09-30T09:40:29.033Z,13.40
2022-09-30T09:41:28.881Z,13.47
2022-09-30T09:42:28.928Z,13.52
2022-09-30T09:43:29.600Z,13.59
2022-09-30T09:44:28.848Z,13.65
2022-09-30T09:45:28.869Z,13.74
2022-09-30T09:46:28.867Z,13.81
2022-09-30T09:47:28.821Z,13.91
2022-09-30T09:48:28.904Z,13.94
2022-09-30T09:49:28.793Z,13.99
2022-09-30T09:50:28.765Z,14.01
2022-09-30T09:51:28.751Z,14.09
2022-09-30T09:52:28.752Z,14.09
2022-09-30T09:53:28.724Z,14.07
2022-09-30T09:54:28.718Z,14.13
2022-09-30T09:55:28.727Z,14.12
2022-09-30T09:56:32.696Z,14.10
2022-09-30T09:57:30.835Z,14.17
2022-09-30T09:58:28.638Z,14.19
2022-09-30T09:59:28.669Z,14.24
2022-09-30T10:00:28.622Z,14.24
2022-09-30T10:01:28.665Z,14.29
2022-09-30T10:02:28.848Z,14.34
2022-09-30T10:03:28.580Z,14.38
2022-09-30T10:04:29.718Z,14.44
2022-09-30T10:05:28.561Z,14.47
2022-09-30T10:06:28.535Z,14.46
2022-09-30T10:07:28.557Z,14.53
2022-09-30T10:08:28.505Z,14.53
2022-09-30T10:09:28.516Z,14.54
2022-09-30T10:10:27.497Z,14.54
2022-09-30T10:11:28.479Z,14.61
2022-09-30T10:12:28.466Z,14.65
2022-09-30T10:13:28.472Z,14.78
2022-09-30T10:14:28.448Z,14.90
2022-09-30T10:15:28.444Z,15.02
2022-09-30T10:16:27.396Z,15.05
2022-09-30T10:17:28.435Z,15.09
2022-09-30T10:18:28.370Z,15.13
2022-09-30T10:19:28.410Z,15.13
2022-09-30T10:20:28.339Z,15.09
2022-09-30T10:21:28.347Z,15.05
2022-09-30T10:22:28.372Z,15.05
2022-09-30T10:23:28.319Z,15.08
2022-09-30T10:24:28.307Z,15.13
2022-09-30T10:25:28.289Z,15.21
2022-09-30T10:26:28.262Z,15.28
2022-09-30T10:27:28.260Z,15.41
2022-09-30T10:28:28.371Z,15.49
2022-09-30T10:29:28.226Z,15.57
2022-09-30T10:30:28.210Z,15.59
2022-09-30T10:31:28.374Z,15.66
2022-09-30T10:32:28.217Z,15.66
2022-09-30T10:33:28.183Z,15.68
2022-09-30T10:34:28.156Z,15.72
2022-09-30T10:35:28.153Z,15.79
2022-09-30T10:36:28.127Z,15.86
2022-09-30T10:37:28.111Z,15.93
2022-09-30T10:38:28.178Z,15.86
2022-09-30T10:39:28.132Z,15.92
2022-09-30T10:40:28.072Z,15.99
2022-09-30T10:41:28.464Z,16.03
2022-09-30T10:42:28.051Z,16.09
2022-09-30T10:43:28.050Z,16.16
2022-09-30T10:44:28.033Z,16.18
2022-09-30T10:45:28.116Z,16.30
2022-09-30T10:46:28.196Z,16.31
2022-09-30T10:47:30.213Z,16.27
2022-09-30T10:48:27.973Z,16.25
2022-09-30T10:49:27.958Z,16.27
2022-09-30T10:50:27.975Z,16.27
2022-09-30T10:51:28.411Z,16.33
2022-09-30T10:52:27.916Z,16.30
2022-09-30T10:53:27.915Z,16.30
2022-09-30T10:54:27.879Z,16.30
2022-09-30T10:55:27.946Z,16.33
2022-09-30T10:56:27.841Z,16.37
2022-09-30T10:57:27.850Z,16.45
2022-09-30T10:58:27.850Z,16.49
2022-09-30T10:59:27.833Z,16.40
2022-09-30T11:00:27.802Z,16.42
2022-09-30T11:01:28.168Z,16.40
2022-09-30T11:02:27.820Z,16.33
2022-09-30T11:03:27.937Z,16.27
2022-09-30T11:04:27.757Z,16.31
2022-09-30T11:05:27.768Z,16.33
2022-09-30T11:06:28.049Z,16.40
2022-09-30T11:07:27.713Z,16.50
2022-09-30T11:08:27.741Z,16.53
2022-09-30T11:09:27.709Z,16.49
2022-09-30T11:10:27.663Z,16.40
2022-09-30T11:11:27.657Z,16.35
2022-09-30T11:12:27.665Z,16.34
2022-09-30T11:13:27.723Z,16.35
2022-09-30T11:14:27.649Z,16.35
2022-09-30T11:15:27.590Z,16.35
2022-09-30T11:16:27.905Z,16.42
2022-09-30T11:17:29.191Z,16.50
2022-09-30T11:18:27.600Z,16.55
2022-09-30T11:19:27.705Z,16.58
2022-09-30T11:20:27.598Z,16.73
2022-09-30T11:21:27.558Z,16.90
2022-09-30T11:22:27.537Z,16.86
2022-09-30T11:23:27.558Z,16.88
2022-09-30T11:24:27.504Z,16.89
2022-09-30T11:25:27.454Z,16.90
2022-09-30T11:26:27.604Z,16.98
2022-09-30T11:27:27.440Z,16.98
2022-09-30T11:28:27.629Z,17.03
2022-09-30T11:29:27.436Z,17.00
2022-09-30T11:30:28.572Z,17.03
2022-09-30T11:31:27.452Z,17.03
2022-09-30T11:32:27.362Z,17.08
2022-09-30T11:33:27.391Z,17.15
2022-09-30T11:34:27.369Z,17.25
2022-09-30T11:35:27.468Z,17.29
2022-09-30T11:36:27.566Z,17.33
2022-09-30T11:37:27.318Z,17.41
2022-09-30T11:38:27.304Z,17.46
2022-09-30T11:39:27.352Z,17.46
2022-09-30T11:40:27.246Z,17.50
2022-09-30T11:41:27.237Z,17.50
2022-09-30T11:42:27.243Z,17.50
2022-09-30T11:43:27.367Z,17.59
2022-09-30T11:44:27.219Z,17.50
2022-09-30T11:45:27.229Z,17.47
2022-09-30T11:46:27.369Z,17.51
2022-09-30T11:47:27.154Z,17.57
2022-09-30T11:48:31.892Z,17.70
2022-09-30T11:49:27.243Z,17.82
2022-09-30T11:50:27.106Z,17.97
2022-09-30T11:51:27.092Z,17.95
2022-09-30T11:52:27.092Z,17.88
2022-09-30T11:53:27.076Z,17.89
2022-09-30T11:54:27.125Z,17.95
2022-09-30T11:55:27.054Z,18.06
2022-09-30T11:56:27.354Z,18.12
2022-09-30T11:57:27.079Z,18.12
2022-09-30T11:58:41.078Z,18.15
2022-09-30T11:59:27.075Z,18.19
2022-09-30T12:00:26.968Z,18.29
2022-09-30T12:01:26.963Z,18.31
2022-09-30T12:02:26.999Z,18.21
2022-09-30T12:03:26.996Z,18.15
2022-09-30T12:04:27.039Z,18.10
2022-09-30T12:05:26.894Z,18.02
2022-09-30T12:06:27.394Z,17.99
2022-09-30T12:07:26.879Z,17.91
2022-09-30T12:08:26.863Z,17.78
2022-09-30T12:09:26.871Z,17.74
2022-09-30T12:10:26.831Z,17.79
2022-09-30T12:11:26.818Z,17.81
2022-09-30T12:12:26.810Z,17.87
2022-09-30T12:13:26.797Z,17.94
2022-09-30T12:14:26.898Z,18.02
2022-09-30T12:15:26.766Z,18.15
2022-09-30T12:16:29.457Z,18.21
2022-09-30T12:17:26.721Z,18.21
2022-09-30T12:18:26.777Z,18.22
2022-09-30T12:19:26.765Z,18.24
2022-09-30T12:20:26.801Z,18.31
2022-09-30T12:21:26.719Z,18.31
2022-09-30T12:22:26.684Z,18.29
2022-09-30T12:23:26.659Z,18.19
2022-09-30T12:24:26.656Z,18.10
2022-09-30T12:25:26.631Z,17.91
2022-09-30T12:26:27.015Z,17.82
2022-09-30T12:27:26.597Z,17.79
2022-09-30T12:28:26.671Z,17.79
2022-09-30T12:29:26.575Z,17.84
2022-09-30T12:30:26.598Z,17.81
2022-09-30T12:31:26.619Z,17.87
2022-09-30T12:32:33.968Z,17.82
2022-09-30T12:33:26.514Z,17.82
2022-09-30T12:34:26.515Z,17.85
2022-09-30T12:35:26.491Z,17.94
2022-09-30T12:36:26.791Z,18.03
2022-09-30T12:37:26.493Z,18.13
2022-09-30T12:38:26.490Z,18.24
2022-09-30T12:39:26.439Z,18.37
2022-09-30T12:40:26.526Z,18.47
2022-09-30T12:41:26.396Z,18.55
2022-09-30T12:42:26.424Z,18.64
2022-09-30T12:43:26.425Z,18.67
2022-09-30T12:44:28.466Z,18.68
2022-09-30T12:45:26.415Z,18.65
2022-09-30T12:46:26.375Z,18.62
2022-09-30T12:47:26.342Z,18.57
2022-09-30T12:48:26.358Z,18.52
2022-09-30T12:49:26.346Z,18.43
2022-09-30T12:50:26.284Z,18.34
2022-09-30T12:51:26.278Z,18.28
2022-09-30T12:52:26.246Z,18.21
2022-09-30T12:53:26.305Z,18.18
2022-09-30T12:54:26.270Z,18.24
2022-09-30T12:55:26.207Z,18.29
2022-09-30T12:56:26.285Z,18.37
2022-09-30T12:57:26.202Z,18.47
2022-09-30T12:58:30.453Z,18.46
2022-09-30T12:59:26.191Z,18.49
2022-09-30T13:00:26.235Z,18.54
2022-09-30T13:01:26.236Z,18.57
2022-09-30T13:02:26.202Z,18.50
2022-09-30T13:03:26.149Z,18.36
2022-09-30T13:04:26.162Z,18.29
2022-09-30T13:05:26.079Z,18.15
2022-09-30T13:06:26.068Z,18.02
2022-09-30T13:07:26.067Z,17.91
2022-09-30T13:08:26.126Z,17.89
2022-09-30T13:09:26.049Z,17.82
2022-09-30T13:10:26.005Z,17.81
2022-09-30T13:11:25.995Z,17.89
2022-09-30T13:12:26.042Z,17.95
2022-09-30T13:13:25.994Z,17.97
2022-09-30T13:14:26.531Z,18.02
2022-09-30T13:15:25.944Z,18.03
2022-09-30T13:16:29.719Z,17.99
2022-09-30T13:17:25.929Z,17.88
2022-09-30T13:18:25.892Z,17.81
2022-09-30T13:19:25.975Z,17.74
2022-09-30T13:20:25.881Z,17.76
2022-09-30T13:21:26.033Z,17.81
2022-09-30T13:22:25.840Z,17.85
2022-09-30T13:23:25.847Z,17.87
2022-09-30T13:24:25.823Z,17.89
2022-09-30T13:25:25.847Z,18.00
2022-09-30T13:26:25.817Z,18.04
2022-09-30T13:27:25.783Z,18.07
2022-09-30T13:28:25.821Z,18.12
2022-09-30T13:29:25.798Z,18.19
2022-09-30T13:30:25.739Z,18.24
2022-09-30T13:31:25.805Z,18.33
2022-09-30T13:32:25.707Z,18.33
2022-09-30T13:33:25.719Z,18.31
2022-09-30T13:34:25.728Z,18.29
2022-09-30T13:35:25.675Z,18.28
2022-09-30T13:36:25.763Z,18.33
2022-09-30T13:37:25.696Z,18.28
2022-09-30T13:38:38.510Z,18.28
2022-09-30T13:39:28.678Z,18.17
2022-09-30T13:41:00.183Z,18.07
2022-09-30T13:41:25.599Z,18.00
2022-09-30T13:42:25.582Z,17.91
2022-09-30T13:43:25.607Z,17.85
2022-09-30T13:44:25.608Z,17.82
2022-09-30T13:45:25.585Z,17.82
2022-09-30T13:46:25.524Z,17.78
2022-09-30T13:47:25.528Z,17.79
2022-09-30T13:48:25.494Z,17.87
2022-09-30T13:49:25.487Z,17.85
2022-09-30T13:50:25.494Z,17.89
2022-09-30T13:51:25.468Z,17.97
2022-09-30T13:52:25.485Z,17.91
2022-09-30T13:53:25.515Z,17.85
2022-09-30T13:54:25.420Z,17.78
2022-09-30T13:55:25.418Z,17.78
2022-09-30T13:56:25.480Z,17.70
2022-09-30T13:57:25.390Z,17.71
2022-09-30T13:58:25.369Z,17.76
2022-09-30T13:59:25.353Z,17.79
2022-09-30T14:00:25.390Z,17.82
2022-09-30T14:01:25.627Z,17.85
2022-09-30T14:02:25.317Z,17.87
2022-09-30T14:03:25.376Z,17.84
2022-09-30T14:04:25.277Z,17.89
2022-09-30T14:05:25.288Z,17.92
2022-09-30T14:06:25.279Z,17.89
2022-09-30T14:07:25.276Z,17.81
2022-09-30T14:08:25.284Z,17.81
2022-09-30T14:09:25.213Z,17.82
2022-09-30T14:10:25.212Z,17.87
2022-09-30T14:11:25.191Z,17.92
2022-09-30T14:12:25.234Z,18.00
2022-09-30T14:13:25.190Z,18.00
2022-09-30T14:14:25.141Z,17.94
2022-09-30T14:15:25.240Z,17.84
2022-09-30T14:16:25.155Z,17.79
2022-09-30T14:17:25.087Z,17.71
2022-09-30T14:18:25.114Z,17.70
2022-09-30T14:19:25.073Z,17.66
2022-09-30T14:20:25.076Z,17.62
2022-09-30T14:21:25.044Z,17.57
2022-09-30T14:22:25.038Z,17.57
2022-09-30T14:23:25.029Z,17.59
2022-09-30T14:24:25.017Z,17.64
2022-09-30T14:25:25.014Z,17.67
2022-09-30T14:26:24.959Z,17.73
2022-09-30T14:27:24.943Z,17.78
2022-09-30T14:28:24.997Z,17.79
2022-09-30T14:29:24.926Z,17.79
2022-09-30T14:30:24.938Z,17.78
2022-09-30T14:31:24.963Z,17.76
2022-09-30T14:32:24.892Z,17.74
2022-09-30T14:33:24.867Z,17.74
2022-09-30T14:34:24.870Z,17.74
2022-09-30T14:35:24.874Z,17.76
2022-09-30T14:36:24.868Z,17.71
2022-09-30T14:37:24.804Z,17.70
2022-09-30T14:38:24.802Z,17.69
2022-09-30T14:39:24.774Z,17.62
2022-09-30T14:40:24.788Z,17.57
2022-09-30T14:41:24.909Z,17.59
2022-09-30T14:42:24.790Z,17.59
2022-09-30T14:43:24.733Z,17.64
2022-09-30T14:44:24.725Z,17.66
2022-09-30T14:45:24.754Z,17.57
2022-09-30T14:46:24.684Z,17.55
2022-09-30T14:47:24.679Z,17.54
2022-09-30T14:48:24.791Z,17.51
2022-09-30T14:49:24.666Z,17.46
2022-09-30T14:50:25.682Z,17.41
2022-09-30T14:51:24.649Z,17.35
2022-09-30T14:52:24.603Z,17.32
2022-09-30T14:53:24.695Z,17.30
2022-09-30T14:54:24.601Z,17.32